Address 0xe07b4764e0f03045d6dfddc8431c4d193dacabc1 5

 
Txn Hash Method
Block
From
To
Value [Txn Fee]
0x576fb1d613d05ef90de94e369891f4ad799915b785fef287c9b84d7c00af61220x2db897d0218851282021-11-28 3:55:342 days 8 hrs ago0xe07b4764e0f03045d6dfddc8431c4d193dacabc1OUT 0x70270c228c5b4279d1578799926873aa72446ccd0 MATIC0.08041506
0xaabe597c000435bb7e92066147e804b2c7f9853638d568d562a3cc935a638da0Approve218851082021-11-28 3:54:502 days 8 hrs ago0xe07b4764e0f03045d6dfddc8431c4d193dacabc1OUT 0xc1c93d475dc82fe72dbc7074d55f5a734f8ceeae0 MATIC0.018448056
0xa1db31d89d92a7e499035e6b543a610806ae3eff36c95ff89737d5d2fcdbc1c6Vest218850842021-11-28 3:54:022 days 8 hrs ago0xe07b4764e0f03045d6dfddc8431c4d193dacabc1OUT 0x954ea71d67007f41f172c18587167c6335e93f710 MATIC0.00543726
0xefaa64e36701bab19e38993f43952f7242ecff81b7a949f297e265c02f3c0525Transfer216963372021-11-23 5:20:287 days 6 hrs ago0xe07b4764e0f03045d6dfddc8431c4d193dacabc1OUT0xf6da163fa48a6b4df5876c5be21b7bf64edb9a421 MATIC0.00105
0xa668ec264baa6903e20bb693b3e64bbb8f07c121f28299f117e201dc84cc9c77Transfer216963302021-11-23 5:20:147 days 6 hrs ago0xe07b4764e0f03045d6dfddc8431c4d193dacabc1OUT0x5c10331fca0b526406df420c42c90b49bc1a693f1 MATIC0.00105
0x801c2cca8c95f7bfb8c87fbf426b9aa361dfa60e68a86955c666255c07d570fbTransfer216963272021-11-23 5:20:087 days 6 hrs ago0xe07b4764e0f03045d6dfddc8431c4d193dacabc1OUT0xe6d2a6021762b23d1d380e5ca6133e7af7ebecc71 MATIC0.00105
0x8f7a10e2b137ef6c6dbe13eae9b5cc7d5b8832d2fa5cbd006684bb9653c184d6Transfer216963232021-11-23 5:20:007 days 6 hrs ago0xe07b4764e0f03045d6dfddc8431c4d193dacabc1OUT0x9b9e485040686a48f6f41848086fad301aaf08ff1 MATIC0.00105
0x0340fa42251a4d3995e17911f7f151e3ebb5e49c57615bf011e132c0bb9bd133Safe Transfer Fr...216881192021-11-22 23:25:097 days 12 hrs ago0xe07b4764e0f03045d6dfddc8431c4d193dacabc1OUT 0xdde17e0dd798132f699b58fd30e75f2197c2a2fc0 MATIC0.0019593
0x7f880b0e8bf1787dfc166a323f207fff0550d92ea49db21e707f3c671b8e9349Safe Transfer Fr...216881012021-11-22 23:24:337 days 12 hrs ago0xe07b4764e0f03045d6dfddc8431c4d193dacabc1OUT 0xdde17e0dd798132f699b58fd30e75f2197c2a2fc0 MATIC0.0019593
0xe43d4662625cf771e19d04463a55e39a73b0afbc993499a221bc77a6322f5cf8Safe Transfer Fr...216880782021-11-22 23:23:477 days 12 hrs ago0xe07b4764e0f03045d6dfddc8431c4d193dacabc1OUT 0xdde17e0dd798132f699b58fd30e75f2197c2a2fc0 MATIC0.0019593
0x5a98428692c0183adc15909d1a3724ad0f17bc83dca4a8fb3cb12c8d0ddd6030Safe Transfer Fr...216880402021-11-22 23:22:277 days 12 hrs ago0xe07b4764e0f03045d6dfddc8431c4d193dacabc1OUT 0xdde17e0dd798132f699b58fd30e75f2197c2a2fc0 MATIC0.0019593
0xca2407b98e25087b55ad4017e9dade140816bdc2e06ff4aa1f1e727fc263d179Buy NF Ts216861352021-11-22 22:15:457 days 13 hrs ago0xe07b4764e0f03045d6dfddc8431c4d193dacabc1OUT 0x6ec2ac7adf0dc4363b0f35380682257d3b80ccb70 MATIC0.0086691
0xa51d8eae0fd4a67bcd6d626ac2104a0ec1f8b06f5237062fb3e50357eac8b69fApprove216861152021-11-22 22:15:057 days 13 hrs ago0xe07b4764e0f03045d6dfddc8431c4d193dacabc1OUT 0x7ceb23fd6bc0add59e62ac25578270cff1b9f6190 MATIC0.001392
0x4763a795a0e23e6613ab0b1a6aa478e71a17fbd9e981caea88a8928919317c76Swap Exact Token...216860602021-11-22 22:13:117 days 13 hrs ago0xe07b4764e0f03045d6dfddc8431c4d193dacabc1OUT QuickSwap: Router0 MATIC0.00312231
0xaee5557195f4119da8bb9d25127e8d2bc4520096c70dc7a6871be93811be447bApprove216860512021-11-22 22:12:537 days 13 hrs ago0xe07b4764e0f03045d6dfddc8431c4d193dacabc1OUT USD Coin0 MATIC0.00175338
0x278cfc10e96ae6e24d06817307697534f5275f8d7e3b9a4c380625dd1e93864cBuy NF Ts216469422021-11-21 21:58:358 days 14 hrs ago0xe07b4764e0f03045d6dfddc8431c4d193dacabc1OUT 0x6ec2ac7adf0dc4363b0f35380682257d3b80ccb70 MATIC0.01036086
0x57ae0713118c4a00ec0def53cdbe9408f154c68e20b54e9d8a4d179e801060c3Approve216468932021-11-21 21:56:538 days 14 hrs ago0xe07b4764e0f03045d6dfddc8431c4d193dacabc1OUT 0x7ceb23fd6bc0add59e62ac25578270cff1b9f6190 MATIC0.001392
0x1910c4736fbbca158be897b387d4e4efbd3cd174bdb67a1193f9150b48e192880x2db897d0216467782021-11-21 21:52:558 days 14 hrs ago0xe07b4764e0f03045d6dfddc8431c4d193dacabc1OUT 0x70270c228c5b4279d1578799926873aa72446ccd0 MATIC0.062883364
0xddcb60312400abe286d2dd51dcd26cf00b841d789b322ae5c411a849f0200d11Approve216467692021-11-21 21:52:378 days 14 hrs ago0xe07b4764e0f03045d6dfddc8431c4d193dacabc1OUT 0xc2132d05d31c914a87c6611c10748aeb04b58e8f0 MATIC0.015517456
0x95f08c69999b2d05871b46acadb53d7932a74bb389f94bd5bdf18e7a8d7ba1c0Transfer211231132021-11-08 8:29:4722 days 3 hrs ago0xe07b4764e0f03045d6dfddc8431c4d193dacabc1OUT 0x3f6b3595ecf70735d3f48d69b09c4e4506db3f470 MATIC0.00065028
0xac671b1facc9ec311a957ecd0bf44022467cc872fd231738c22df69c44a381970x2db897d0211230722021-11-08 8:28:2522 days 3 hrs ago0xe07b4764e0f03045d6dfddc8431c4d193dacabc1OUT 0x70270c228c5b4279d1578799926873aa72446ccd0 MATIC0.038228376
0x5c04c11d874a8401c13939d00706669a3758bd24afcd8808685c6028a759aa42Approve211230572021-11-08 8:27:5122 days 3 hrs ago0xe07b4764e0f03045d6dfddc8431c4d193dacabc1OUT USD Coin0 MATIC0.002104056
0x7e51666dd40a86df40cf9de0fa46d5d3c61f294490f96e5bc85a4ead32708e9c0x2db897d0210665062021-11-06 22:19:4923 days 13 hrs ago0xe07b4764e0f03045d6dfddc8431c4d193dacabc1OUT 0x70270c228c5b4279d1578799926873aa72446ccd0 MATIC0.01086345
0x06097e6f376aac32f2df10ec03203329aa0ddf61328a454962ab08c084c51a49Approve210664802021-11-06 22:18:5323 days 13 hrs ago0xe07b4764e0f03045d6dfddc8431c4d193dacabc1OUT WaultFinance: WEXpoly Token0 MATIC0.001865
0x3a63e60354e7e0b2a2c52352a3889d526f7e482a25c693ebb576f69f56670cc1Swap Exact Token...210480012021-11-06 10:58:5424 days 1 hr ago0xe07b4764e0f03045d6dfddc8431c4d193dacabc1OUT Kyber: DMM Router0 MATIC0.00632916
[ Download CSV Export 
Latest 1 internal transaction
Parent Txn Hash Block From To Value
0x7e51666dd40a86df40cf9de0fa46d5d3c61f294490f96e5bc85a4ead32708e9c210665062021-11-06 22:19:4923 days 13 hrs ago 0x70270c228c5b4279d1578799926873aa72446ccd0xe07b4764e0f03045d6dfddc8431c4d193dacabc11.92343720467205453 MATIC
[ Download CSV Export 
Loading

Contract Name:
0 MATIC

Compiler Version
0

Optimization Enabled:
0 MATIC

Other Settings:
-NA-
Block Transaction Gas Used Reward
Age Block Fee Address BC Fee Address Voting Power Jailed Incoming
Block Uncle Number Difficulty Gas Used Reward
Loading
Loading
Make sure to use the "Vote Down" button for any spammy posts, and the "Vote Up" for interesting conversations.